Terminal Aerodrome Forecast
Issued by NWS

Home | Current Version | Previous Version | Text Only | Print | Product List | Glossary On
Versions: 1 2 3 4 5 6 7 8 9 10 11 12 13 14 15 16 17 18 19 20 21 22 23 24 25 26 27 28 29 30 31 32
000
FTUS42 KMFL 230323 AAA
TAFMIA
TAF AMD
KMIA 230323Z 2303/2324 03005KT P6SM SCT020 BKN050
     FM231200 05008KT P6SM VCSH SCT025 BKN050 PROB30 2312/2318
      04015G25KT 4SM TSRA BKN020CB
     FM231800 06012KT P6SM VCSH SCT025 BKN050=

USA.gov is the U.S. government's official web portal to all federal, state and local government web resources and services.